Archival Weather

Abadan

Abadan, Iran (OIAA)

Report from: Tuesday, July 19, 2022 5:50 AM UTC
Current time: Tuesday, June 18, 2024 11:38 AM UTC

Current weather – Weather history – Daily summaries
Weather forecast

Temperature39.0°C (102.2°F)
Heat index36.9°C (98.5°F)
Dew point8.0°C (46.4°F)
Winds 8 kts (4.1 m/s, 9.2 mph) West-Northwest (300°)
Clouds Sky clear
Altimeter29.47 in.Hg (998 mB)
Relative humidity15 %
Density altitude3,368 ft. (1,026 m)
Remarks Ceiling and visibility OK
No significant changes expected in the next two hours
Flight conditions Visual Meteorological Conditions
Raw dataOIAA 190550Z 30008KT CAVOK 39/08 Q0998 NOSIG
An error has occurred. This application may no longer respond until reloaded. Reload 🗙